createdAt,value
2017-09-27T00:02:26.842Z,15.00
2017-09-27T00:04:54.427Z,15.01
2017-09-27T00:07:22.055Z,15.05
2017-09-27T00:09:49.661Z,15.03
2017-09-27T00:12:17.295Z,14.99
2017-09-27T00:14:44.922Z,14.93
2017-09-27T00:17:12.551Z,14.84
2017-09-27T00:19:40.141Z,14.82
2017-09-27T00:22:07.766Z,14.90
2017-09-27T00:24:35.434Z,14.95
2017-09-27T00:27:03.086Z,14.98
2017-09-27T00:29:30.687Z,14.98
2017-09-27T00:31:58.308Z,15.02
2017-09-27T00:34:25.930Z,15.08
2017-09-27T00:36:53.579Z,15.03
2017-09-27T00:39:21.171Z,15.05
2017-09-27T00:41:48.797Z,15.03
2017-09-27T00:44:16.391Z,14.96
2017-09-27T00:46:44.098Z,14.91
2017-09-27T00:49:11.690Z,14.88
2017-09-27T00:51:39.322Z,14.92
2017-09-27T00:54:06.908Z,14.84
2017-09-27T00:56:34.515Z,14.81
2017-09-27T00:59:02.087Z,14.75
2017-09-27T01:01:29.780Z,14.70
2017-09-27T01:03:57.384Z,14.71
2017-09-27T01:06:25.027Z,14.72
2017-09-27T01:08:52.609Z,14.73
2017-09-27T01:11:20.234Z,14.71
2017-09-27T01:13:47.818Z,14.74
2017-09-27T01:16:15.439Z,14.71
2017-09-27T01:18:43.102Z,14.67
2017-09-27T01:21:10.763Z,14.67
2017-09-27T01:23:38.352Z,14.66
2017-09-27T01:26:05.993Z,14.59
2017-09-27T01:28:33.630Z,14.59
2017-09-27T01:31:01.230Z,14.61
2017-09-27T01:33:28.831Z,14.54
2017-09-27T01:35:56.450Z,14.44
2017-09-27T01:38:24.074Z,14.40
2017-09-27T01:40:51.648Z,14.35
2017-09-27T01:43:19.266Z,14.35
2017-09-27T01:45:50.574Z,14.35
2017-09-27T01:48:18.182Z,14.33
2017-09-27T01:50:45.778Z,14.31
2017-09-27T01:53:13.478Z,14.32
2017-09-27T01:55:41.074Z,14.32
2017-09-27T01:58:08.685Z,14.36
2017-09-27T02:00:36.287Z,14.25
2017-09-27T02:03:03.901Z,14.17
2017-09-27T02:05:31.511Z,14.15
2017-09-27T02:07:59.119Z,14.14
2017-09-27T02:10:26.719Z,14.13
2017-09-27T02:12:54.354Z,14.10
2017-09-27T02:15:21.943Z,14.09
2017-09-27T02:17:49.563Z,13.94
2017-09-27T02:20:17.165Z,13.76
2017-09-27T02:22:44.807Z,13.72
2017-09-27T02:25:12.394Z,13.66
2017-09-27T02:27:40.023Z,13.75
2017-09-27T02:30:07.619Z,13.67
2017-09-27T02:32:35.247Z,13.66
2017-09-27T02:35:02.849Z,13.69
2017-09-27T02:37:30.490Z,13.72
2017-09-27T02:39:58.106Z,13.71
2017-09-27T02:42:25.690Z,13.66
2017-09-27T02:44:53.322Z,13.67
2017-09-27T02:47:20.951Z,13.65
2017-09-27T02:49:48.567Z,13.60
2017-09-27T02:52:16.163Z,13.51
2017-09-27T02:54:43.834Z,13.50
2017-09-27T02:57:11.470Z,13.51
2017-09-27T02:59:39.101Z,13.45
2017-09-27T03:02:06.702Z,13.48
2017-09-27T03:04:34.329Z,13.50
2017-09-27T03:07:01.957Z,13.53
2017-09-27T03:09:29.578Z,13.53
2017-09-27T03:11:57.184Z,13.55
2017-09-27T03:14:24.799Z,13.56
2017-09-27T03:16:52.398Z,13.55
2017-09-27T03:19:20.020Z,13.52
2017-09-27T03:21:47.723Z,13.43
2017-09-27T03:24:15.373Z,13.32
2017-09-27T03:26:42.963Z,13.28
2017-09-27T03:29:10.564Z,13.28
2017-09-27T03:31:38.190Z,13.23
2017-09-27T03:34:05.887Z,13.28
2017-09-27T03:36:33.477Z,13.26
2017-09-27T03:39:01.087Z,13.23
2017-09-27T03:41:28.720Z,13.15
2017-09-27T03:43:56.297Z,13.12
2017-09-27T03:46:25.111Z,13.14
2017-09-27T03:48:52.699Z,13.15
2017-09-27T03:51:20.310Z,13.16
2017-09-27T03:53:47.895Z,13.17
2017-09-27T03:56:15.526Z,13.23
2017-09-27T03:58:43.126Z,13.28
2017-09-27T04:01:10.755Z,13.33
2017-09-27T04:03:39.207Z,13.35
2017-09-27T04:06:06.845Z,13.37
2017-09-27T04:08:34.431Z,13.38
2017-09-27T04:11:04.571Z,13.37
2017-09-27T04:13:32.211Z,13.36
2017-09-27T04:16:00.015Z,13.39
2017-09-27T04:18:27.662Z,13.41
2017-09-27T04:20:55.277Z,13.42
2017-09-27T04:23:23.034Z,13.41
2017-09-27T04:25:50.623Z,13.41
2017-09-27T04:28:18.853Z,13.42
2017-09-27T04:30:46.747Z,13.40
2017-09-27T04:33:14.369Z,13.40
2017-09-27T04:35:41.986Z,13.40
2017-09-27T04:38:09.936Z,13.43
2017-09-27T04:40:37.547Z,13.45
2017-09-27T04:43:05.184Z,13.47
2017-09-27T04:45:32.783Z,13.45
2017-09-27T04:48:00.439Z,13.47
2017-09-27T04:50:28.043Z,13.45
2017-09-27T04:52:55.743Z,13.44
2017-09-27T04:55:23.350Z,13.34
2017-09-27T04:57:51.229Z,13.25
2017-09-27T05:00:18.843Z,13.17
2017-09-27T05:02:46.479Z,13.09
2017-09-27T05:05:14.063Z,13.06
2017-09-27T05:07:41.678Z,13.02
2017-09-27T05:10:09.295Z,13.04
2017-09-27T05:12:36.906Z,13.08
2017-09-27T05:15:04.551Z,13.06
2017-09-27T05:17:33.278Z,13.02
2017-09-27T05:20:01.754Z,13.05
2017-09-27T05:22:29.427Z,13.06
2017-09-27T05:24:57.118Z,13.05
2017-09-27T05:27:26.379Z,13.07
2017-09-27T05:29:53.974Z,13.09
2017-09-27T05:32:21.601Z,13.09
2017-09-27T05:34:49.207Z,13.17
2017-09-27T05:37:16.829Z,13.19
2017-09-27T05:39:44.438Z,13.22
2017-09-27T05:42:12.160Z,13.24
2017-09-27T05:44:39.815Z,13.25
2017-09-27T05:47:07.470Z,13.18
2017-09-27T05:49:35.061Z,13.16
2017-09-27T05:52:02.742Z,13.18
2017-09-27T05:54:30.351Z,13.23
2017-09-27T05:56:58.003Z,13.25
2017-09-27T05:59:25.598Z,13.27
2017-09-27T06:01:53.324Z,13.30
2017-09-27T06:04:21.004Z,13.29
2017-09-27T06:06:48.675Z,13.30
2017-09-27T06:09:16.266Z,13.29
2017-09-27T06:11:43.894Z,13.29
2017-09-27T06:14:11.509Z,13.26
2017-09-27T06:16:39.110Z,13.21
2017-09-27T06:19:06.824Z,13.18
2017-09-27T06:21:34.437Z,13.15
2017-09-27T06:24:03.266Z,13.12
2017-09-27T06:26:30.888Z,13.14
2017-09-27T06:28:58.531Z,13.12
2017-09-27T06:31:26.143Z,13.11
2017-09-27T06:33:53.919Z,13.19
2017-09-27T06:36:21.608Z,13.26
2017-09-27T06:38:49.264Z,13.32
2017-09-27T06:41:16.866Z,13.39
2017-09-27T06:43:44.581Z,13.43
2017-09-27T06:46:12.201Z,13.40
2017-09-27T06:48:39.964Z,13.43
2017-09-27T06:51:07.611Z,13.43
2017-09-27T06:53:35.401Z,13.46
2017-09-27T06:56:03.001Z,13.45
2017-09-27T06:58:30.619Z,13.49
2017-09-27T07:00:58.239Z,13.48
2017-09-27T07:03:25.840Z,13.49
2017-09-27T07:05:53.474Z,13.54
2017-09-27T07:08:21.083Z,13.56
2017-09-27T07:10:48.712Z,13.64
2017-09-27T07:13:16.311Z,13.67
2017-09-27T07:15:43.938Z,13.70
2017-09-27T07:18:11.529Z,13.73
2017-09-27T07:20:39.131Z,13.76
2017-09-27T07:23:06.770Z,13.83
2017-09-27T07:25:34.497Z,13.85
2017-09-27T07:28:02.142Z,13.97
2017-09-27T07:30:29.922Z,14.00
2017-09-27T07:32:57.582Z,14.05
2017-09-27T07:35:25.358Z,14.04
2017-09-27T07:37:52.992Z,14.09
2017-09-27T07:40:20.609Z,14.14
2017-09-27T07:42:48.250Z,14.18
2017-09-27T07:45:15.950Z,14.22
2017-09-27T07:47:43.746Z,14.26
2017-09-27T07:50:11.366Z,14.34
2017-09-27T07:52:39.103Z,14.45
2017-09-27T07:55:06.713Z,14.51
2017-09-27T07:57:34.386Z,14.57
2017-09-27T08:00:02.001Z,14.67
2017-09-27T08:02:29.642Z,14.80
2017-09-27T08:04:57.285Z,14.94
2017-09-27T08:07:24.902Z,15.03
2017-09-27T08:09:52.562Z,15.12
2017-09-27T08:12:20.206Z,15.22
2017-09-27T08:14:47.807Z,15.30
2017-09-27T08:17:15.522Z,15.38
2017-09-27T08:19:43.126Z,15.43
2017-09-27T08:22:10.746Z,15.52
2017-09-27T08:24:38.355Z,15.54
2017-09-27T08:27:05.976Z,15.59
2017-09-27T08:29:33.695Z,15.66
2017-09-27T08:32:01.359Z,15.75
2017-09-27T08:34:28.954Z,15.83
2017-09-27T08:36:56.590Z,15.90
2017-09-27T08:39:24.195Z,15.96
2017-09-27T08:41:51.873Z,16.07
2017-09-27T08:44:19.494Z,16.16
2017-09-27T08:46:47.094Z,16.28
2017-09-27T08:49:14.755Z,16.34
2017-09-27T08:51:43.010Z,16.37
2017-09-27T08:54:10.645Z,16.47
2017-09-27T08:56:38.275Z,16.57
2017-09-27T08:59:05.922Z,16.65
2017-09-27T09:01:33.531Z,16.76
2017-09-27T09:04:01.160Z,16.87
2017-09-27T09:06:28.802Z,16.95
2017-09-27T09:08:56.447Z,16.97
2017-09-27T09:11:24.031Z,17.08
2017-09-27T09:13:51.678Z,17.17
2017-09-27T09:16:19.294Z,17.23
2017-09-27T09:18:47.136Z,17.34
2017-09-27T09:21:14.756Z,17.38
2017-09-27T09:23:42.378Z,17.48
2017-09-27T09:26:09.984Z,17.55
2017-09-27T09:28:37.610Z,17.57
2017-09-27T09:31:05.212Z,17.68
2017-09-27T09:33:32.876Z,17.83
2017-09-27T09:36:00.455Z,17.95
2017-09-27T09:38:28.167Z,17.96
2017-09-27T09:40:55.773Z,18.02
2017-09-27T09:43:23.430Z,18.15
2017-09-27T09:45:51.032Z,18.30
2017-09-27T09:48:18.670Z,18.42
2017-09-27T09:50:46.293Z,18.62
2017-09-27T09:53:13.923Z,18.78
2017-09-27T09:55:41.526Z,18.88
2017-09-27T09:58:09.170Z,18.97
2017-09-27T10:00:36.767Z,18.95
2017-09-27T10:03:04.435Z,19.13
2017-09-27T10:05:32.032Z,19.28
2017-09-27T10:07:59.630Z,19.41
2017-09-27T10:10:27.283Z,19.44
2017-09-27T10:12:54.885Z,19.48
2017-09-27T10:15:22.514Z,19.56
2017-09-27T10:17:50.124Z,19.63
2017-09-27T10:20:17.782Z,19.66
2017-09-27T10:22:45.406Z,19.72
2017-09-27T10:25:13.052Z,19.89
2017-09-27T10:27:40.650Z,20.15
2017-09-27T10:30:08.277Z,20.28
2017-09-27T10:32:35.900Z,20.20
2017-09-27T10:35:03.532Z,20.34
2017-09-27T10:37:31.143Z,20.34
2017-09-27T10:39:58.782Z,20.66
2017-09-27T10:42:26.403Z,20.93
2017-09-27T10:44:54.082Z,20.92
2017-09-27T10:47:21.690Z,21.00
2017-09-27T10:49:49.365Z,21.12
2017-09-27T10:52:16.972Z,21.29
2017-09-27T10:54:44.605Z,21.21
2017-09-27T10:57:12.220Z,21.37
2017-09-27T10:59:39.870Z,21.35
2017-09-27T11:02:07.473Z,21.44
2017-09-27T11:04:35.125Z,21.54
2017-09-27T11:07:02.733Z,21.60
2017-09-27T11:09:30.375Z,21.71
2017-09-27T11:11:58.066Z,21.63
2017-09-27T11:14:25.719Z,21.72
2017-09-27T11:16:53.416Z,21.88
2017-09-27T11:19:21.019Z,21.99
2017-09-27T11:21:48.650Z,22.25
2017-09-27T11:24:16.286Z,22.38
2017-09-27T11:26:43.917Z,22.41
2017-09-27T11:29:11.508Z,22.53
2017-09-27T11:31:39.222Z,22.62
2017-09-27T11:34:06.831Z,22.71
2017-09-27T11:36:34.494Z,22.93
2017-09-27T11:39:02.103Z,23.02
2017-09-27T11:41:29.757Z,23.05
2017-09-27T11:43:57.359Z,23.09
2017-09-27T11:46:25.002Z,23.08
2017-09-27T11:48:52.598Z,23.12
2017-09-27T11:51:20.234Z,23.09
2017-09-27T11:53:47.955Z,23.11
2017-09-27T11:56:15.603Z,23.15
2017-09-27T11:58:43.214Z,23.11
2017-09-27T12:01:10.876Z,23.22
2017-09-27T12:03:38.487Z,23.34
2017-09-27T12:06:06.131Z,23.49
2017-09-27T12:08:33.819Z,23.79
2017-09-27T12:11:01.463Z,23.58
2017-09-27T12:13:29.083Z,23.43
2017-09-27T12:15:56.699Z,23.59
2017-09-27T12:18:24.379Z,23.74
2017-09-27T12:20:52.046Z,23.67
2017-09-27T12:23:19.690Z,23.97
2017-09-27T12:25:47.305Z,23.94
2017-09-27T12:28:14.937Z,24.04
2017-09-27T12:30:42.559Z,24.06
2017-09-27T12:33:10.195Z,23.88
2017-09-27T12:35:37.813Z,24.00
2017-09-27T12:38:05.510Z,24.11
2017-09-27T12:40:33.110Z,24.33
2017-09-27T12:43:00.740Z,24.13
2017-09-27T12:45:28.394Z,24.23
2017-09-27T12:47:55.998Z,24.19
2017-09-27T12:50:23.649Z,23.88
2017-09-27T12:52:51.246Z,23.62
2017-09-27T12:55:19.199Z,23.74
2017-09-27T12:57:46.826Z,24.07
2017-09-27T13:00:14.470Z,24.38
2017-09-27T13:02:42.100Z,24.45
2017-09-27T13:05:09.799Z,24.84
2017-09-27T13:07:37.447Z,24.89
2017-09-27T13:10:05.122Z,24.78
2017-09-27T13:12:32.752Z,24.80
2017-09-27T13:15:00.424Z,24.71
2017-09-27T13:17:28.048Z,24.64
2017-09-27T13:19:55.803Z,24.75
2017-09-27T13:22:23.450Z,24.39
2017-09-27T13:24:51.073Z,24.08
2017-09-27T13:27:18.843Z,23.78
2017-09-27T13:29:46.443Z,24.26
2017-09-27T13:32:14.087Z,24.68
2017-09-27T13:34:41.704Z,24.97
2017-09-27T13:37:09.366Z,24.99
2017-09-27T13:39:36.956Z,24.93
2017-09-27T13:42:04.632Z,24.91
2017-09-27T13:44:32.287Z,24.19
2017-09-27T13:46:59.930Z,23.58
2017-09-27T13:49:27.595Z,23.15
2017-09-27T13:51:55.228Z,23.12
2017-09-27T13:54:22.838Z,23.04
2017-09-27T13:56:50.491Z,23.53
2017-09-27T13:59:18.115Z,24.14
2017-09-27T14:01:45.743Z,24.61
2017-09-27T14:04:13.357Z,24.61
2017-09-27T14:06:41.000Z,24.85
2017-09-27T14:09:08.714Z,25.10
2017-09-27T14:11:36.440Z,25.21
2017-09-27T14:14:04.063Z,25.70
2017-09-27T14:16:31.729Z,25.24
2017-09-27T14:18:59.407Z,24.87
2017-09-27T14:21:27.678Z,24.52
2017-09-27T14:23:55.281Z,24.35
2017-09-27T14:26:22.919Z,24.22
2017-09-27T14:28:50.595Z,24.59
2017-09-27T14:31:18.243Z,24.79
2017-09-27T14:33:45.840Z,24.48
2017-09-27T14:36:13.566Z,24.03
2017-09-27T14:38:41.248Z,23.71
2017-09-27T14:41:09.095Z,23.87
2017-09-27T14:43:36.697Z,23.98
2017-09-27T14:46:04.339Z,24.22
2017-09-27T14:48:32.013Z,24.30
2017-09-27T14:50:59.657Z,24.61
2017-09-27T14:53:27.263Z,24.93
2017-09-27T14:55:54.899Z,24.95
2017-09-27T14:58:22.585Z,24.91
2017-09-27T15:03:24.098Z,24.79
2017-09-27T15:05:51.820Z,24.70
2017-09-27T15:08:19.416Z,24.82
2017-09-27T15:10:47.040Z,24.73
2017-09-27T15:13:14.667Z,24.65
2017-09-27T15:15:42.311Z,24.67
2017-09-27T15:18:09.931Z,24.67
2017-09-27T15:20:37.635Z,24.74
2017-09-27T15:23:05.254Z,24.60
2017-09-27T15:25:33.888Z,24.65
2017-09-27T15:28:01.487Z,24.60
2017-09-27T15:30:29.311Z,24.54
2017-09-27T15:32:57.113Z,24.41
2017-09-27T15:35:24.739Z,24.31
2017-09-27T15:37:52.349Z,24.42
2017-09-27T15:40:20.035Z,24.22
2017-09-27T15:42:47.771Z,23.95
2017-09-27T15:45:15.367Z,23.97
2017-09-27T15:47:43.008Z,23.85
2017-09-27T15:50:10.736Z,23.87
2017-09-27T15:52:38.363Z,23.72
2017-09-27T15:55:05.979Z,23.64
2017-09-27T15:57:33.608Z,23.63
2017-09-27T16:00:01.206Z,23.55
2017-09-27T16:02:28.849Z,23.53
2017-09-27T16:04:56.464Z,23.29
2017-09-27T16:07:24.296Z,23.37
2017-09-27T16:09:51.898Z,23.43
2017-09-27T16:12:19.532Z,23.45
2017-09-27T16:14:47.139Z,23.30
2017-09-27T16:17:15.019Z,23.02
2017-09-27T16:19:42.707Z,22.85
2017-09-27T16:22:10.347Z,22.82
2017-09-27T16:24:37.948Z,22.76
2017-09-27T16:27:05.567Z,22.67
2017-09-27T16:32:06.956Z,22.50
2017-09-27T16:34:34.661Z,22.33
2017-09-27T16:37:02.255Z,22.25
2017-09-27T16:39:29.912Z,22.17
2017-09-27T16:41:57.592Z,22.15
2017-09-27T16:44:25.240Z,22.09
2017-09-27T16:46:52.922Z,22.02
2017-09-27T16:49:20.564Z,21.93
2017-09-27T16:51:48.222Z,21.91
2017-09-27T16:54:15.883Z,21.90
2017-09-27T16:56:43.472Z,21.88
2017-09-27T16:59:11.103Z,21.86
2017-09-27T17:01:38.823Z,21.91
2017-09-27T17:04:06.562Z,21.96
2017-09-27T17:06:34.262Z,21.98
2017-09-27T17:09:01.897Z,21.98
2017-09-27T17:11:29.501Z,22.00
2017-09-27T17:13:57.270Z,21.98
2017-09-27T17:16:24.864Z,21.84
2017-09-27T17:18:52.569Z,21.47
2017-09-27T17:21:20.169Z,21.32
2017-09-27T17:23:47.823Z,21.16
2017-09-27T17:26:15.430Z,21.06
2017-09-27T17:28:43.065Z,21.03
2017-09-27T17:31:10.723Z,21.06
2017-09-27T17:33:38.380Z,21.13
2017-09-27T17:36:05.989Z,21.14
2017-09-27T17:38:33.671Z,21.11
2017-09-27T17:41:01.297Z,20.95
2017-09-27T17:43:29.062Z,20.93
2017-09-27T17:45:56.672Z,20.97
2017-09-27T17:48:24.444Z,20.98
2017-09-27T17:50:52.126Z,21.01
2017-09-27T17:53:19.755Z,21.07
2017-09-27T17:55:47.344Z,21.10
2017-09-27T17:58:14.993Z,21.04
2017-09-27T18:00:42.624Z,20.97
2017-09-27T18:03:10.335Z,20.91
2017-09-27T18:08:58.576Z,20.84
2017-09-27T18:11:40.057Z,20.81
2017-09-27T18:14:18.584Z,20.79
2017-09-27T18:16:51.884Z,20.72
2017-09-27T18:19:19.526Z,20.68
2017-09-27T18:21:48.231Z,20.55
2017-09-27T18:24:16.033Z,20.53
2017-09-27T18:26:43.712Z,20.49
2017-09-27T18:29:12.191Z,20.36
2017-09-27T18:31:40.720Z,20.26
2017-09-27T18:34:08.407Z,20.24
2017-09-27T18:36:36.120Z,20.23
2017-09-27T18:39:03.885Z,20.19
2017-09-27T18:41:31.685Z,20.17
2017-09-27T18:43:59.384Z,20.16
2017-09-27T18:46:27.073Z,20.15
2017-09-27T18:48:54.788Z,20.14
2017-09-27T18:51:22.413Z,20.14
2017-09-27T18:53:50.145Z,20.10
2017-09-27T18:56:18.945Z,20.06
2017-09-27T18:58:46.595Z,20.05
2017-09-27T19:01:14.219Z,20.00
2017-09-27T19:03:42.150Z,19.92
2017-09-27T19:06:09.947Z,19.91
2017-09-27T19:08:39.506Z,19.93
2017-09-27T19:11:08.563Z,19.92
2017-09-27T19:13:36.719Z,19.89
2017-09-27T19:16:04.939Z,19.83
2017-09-27T19:18:32.990Z,19.63
2017-09-27T19:21:01.803Z,19.38
2017-09-27T19:23:30.401Z,19.25
2017-09-27T19:25:58.177Z,19.14
2017-09-27T19:28:26.072Z,19.07
2017-09-27T19:30:55.470Z,18.98
2017-09-27T19:33:23.559Z,18.92
2017-09-27T19:35:51.781Z,18.89
2017-09-27T19:38:20.383Z,18.73
2017-09-27T19:40:48.305Z,18.57
2017-09-27T19:43:16.232Z,18.47
2017-09-27T19:45:44.122Z,18.47
2017-09-27T19:48:12.055Z,18.49
2017-09-27T19:50:40.630Z,18.52
2017-09-27T19:53:08.573Z,18.52
2017-09-27T19:55:36.231Z,18.49
2017-09-27T19:58:05.543Z,18.40
2017-09-27T20:00:33.279Z,18.40
2017-09-27T20:03:00.884Z,18.34
2017-09-27T20:05:28.616Z,18.25
2017-09-27T20:07:56.255Z,18.17
2017-09-27T20:10:24.117Z,18.03
2017-09-27T20:12:51.721Z,17.91
2017-09-27T20:15:19.390Z,17.82
2017-09-27T20:17:46.987Z,17.77
2017-09-27T20:20:14.643Z,17.68
2017-09-27T20:22:42.267Z,17.71
2017-09-27T20:25:09.860Z,17.73
2017-09-27T20:27:37.696Z,17.70
2017-09-27T20:30:05.351Z,17.62
2017-09-27T20:32:32.994Z,17.61
2017-09-27T20:35:00.632Z,17.57
2017-09-27T20:37:28.280Z,17.51
2017-09-27T20:39:55.889Z,17.48
2017-09-27T20:42:23.522Z,17.49
2017-09-27T20:44:51.165Z,17.45
2017-09-27T20:47:18.946Z,17.46
2017-09-27T20:49:46.557Z,17.42
2017-09-27T20:52:14.197Z,17.39
2017-09-27T20:54:41.808Z,17.46
2017-09-27T20:57:09.466Z,17.41
2017-09-27T20:59:37.085Z,17.38
2017-09-27T21:02:04.718Z,17.39
2017-09-27T21:04:32.322Z,17.45
2017-09-27T21:06:59.954Z,17.49
2017-09-27T21:09:27.628Z,17.56
2017-09-27T21:11:55.267Z,17.62
2017-09-27T21:14:22.871Z,17.63
2017-09-27T21:16:50.507Z,17.60
2017-09-27T21:19:18.128Z,17.50
2017-09-27T21:21:45.764Z,17.43
2017-09-27T21:24:13.385Z,17.47
2017-09-27T21:26:41.155Z,17.47
2017-09-27T21:29:08.771Z,17.47
2017-09-27T21:31:36.427Z,17.51
2017-09-27T21:34:04.033Z,17.58
2017-09-27T21:36:31.671Z,17.53
2017-09-27T21:38:59.298Z,17.50
2017-09-27T21:41:26.922Z,17.51
2017-09-27T21:43:55.356Z,17.52
2017-09-27T21:46:22.999Z,17.54
2017-09-27T21:48:50.632Z,17.53
2017-09-27T21:51:18.278Z,17.38
2017-09-27T21:53:45.892Z,17.32
2017-09-27T21:56:13.526Z,17.31
2017-09-27T21:58:41.136Z,17.25
2017-09-27T22:01:08.770Z,17.25
2017-09-27T22:03:36.398Z,17.18
2017-09-27T22:06:04.044Z,17.17
2017-09-27T22:08:31.685Z,17.07
2017-09-27T22:10:59.336Z,17.03
2017-09-27T22:13:26.954Z,17.00
2017-09-27T22:15:54.600Z,17.04
2017-09-27T22:18:22.212Z,17.01
2017-09-27T22:20:49.942Z,17.09
2017-09-27T22:23:17.560Z,17.13
2017-09-27T22:25:45.192Z,17.20
2017-09-27T22:28:12.822Z,17.32
2017-09-27T22:30:40.439Z,17.36
2017-09-27T22:33:08.265Z,17.38
2017-09-27T22:35:35.868Z,17.33
2017-09-27T22:38:03.514Z,17.37
2017-09-27T22:40:31.187Z,17.35
2017-09-27T22:42:58.790Z,17.34
2017-09-27T22:45:26.434Z,17.25
2017-09-27T22:47:54.038Z,17.14
2017-09-27T22:50:21.639Z,17.12
2017-09-27T22:52:49.275Z,17.15
2017-09-27T22:55:16.906Z,17.12
2017-09-27T22:57:44.502Z,17.17
2017-09-27T23:00:12.144Z,17.27
2017-09-27T23:02:39.738Z,17.21
2017-09-27T23:05:07.384Z,17.23
2017-09-27T23:07:35.003Z,17.26
2017-09-27T23:10:02.632Z,17.27
2017-09-27T23:12:30.224Z,17.34
2017-09-27T23:14:57.868Z,17.36
2017-09-27T23:17:25.466Z,17.40
2017-09-27T23:19:53.112Z,17.39
2017-09-27T23:22:36.548Z,17.39
2017-09-27T23:25:04.183Z,17.34
2017-09-27T23:27:31.805Z,17.19
2017-09-27T23:29:59.472Z,17.19
2017-09-27T23:32:27.079Z,17.22
2017-09-27T23:34:54.726Z,17.16
2017-09-27T23:37:22.331Z,17.21
2017-09-27T23:39:49.975Z,17.18
2017-09-27T23:42:17.618Z,17.19
2017-09-27T23:44:45.395Z,17.11
2017-09-27T23:47:13.003Z,17.00
2017-09-27T23:49:40.617Z,16.99
2017-09-27T23:52:08.250Z,16.96
2017-09-27T23:54:35.854Z,16.90
2017-09-27T23:57:03.511Z,16.90
2017-09-27T23:59:31.139Z,16.90
